Time;durP1;ratioP1;P1;durP2;ratioP2;P2;SDS_P1;SDS_P2;PMS_P1;PMS_P2;Temp;Humidity;BMP_temperature;BMP_pressure;BME280_temperature;BME280_humidity;BME280_pressure;Samples;Min_cycle;Max_cycle;Signal;HPM_P1;HPM_P2
2022/03/17 00:05:20;;;;;;;27.13;15.95;;;;;;;10.03;77.92;102053.56;10643512;27;20054;-63
2022/03/17 00:10:42;;;;;;;26.10;16.52;;;;;;;10.11;78.20;102056.69;10643889;27;20039;-63
2022/03/17 00:16:05;;;;;;;26.42;16.17;;;;;;;10.06;77.47;102054.28;10643103;27;20059;-63
2022/03/17 00:21:27;;;;;;;27.70;15.88;;;;;;;10.10;77.36;102054.97;10629104;27;20045;-63
2022/03/17 00:26:49;;;;;;;26.55;15.88;;;;;;;10.09;77.44;102059.34;10643596;27;20497;-63
2022/03/17 00:32:12;;;;;;;23.08;15.05;;;;;;;10.16;76.85;102054.72;10642287;27;20495;-63
2022/03/17 00:37:34;;;;;;;27.20;15.60;;;;;;;10.01;78.01;102045.78;10642918;27;20073;-63
2022/03/17 00:42:55;;;;;;;25.85;16.15;;;;;;;10.07;77.76;102045.53;10643060;27;20043;-63
2022/03/17 00:48:17;;;;;;;25.85;16.02;;;;;;;10.14;77.43;102040.91;10642005;27;20090;-62
2022/03/17 00:53:39;;;;;;;27.23;16.45;;;;;;;10.09;77.58;102022.03;10642551;27;20069;-63
2022/03/17 00:59:01;;;;;;;27.20;16.30;;;;;;;10.18;76.79;102016.44;10643589;27;20061;-63
2022/03/17 01:04:22;;;;;;;27.20;14.95;;;;;;;10.19;76.63;102007.69;10628551;27;20689;-63
2022/03/17 01:09:44;;;;;;;25.15;15.50;;;;;;;10.03;76.46;102002.28;10678284;27;20130;-62
2022/03/17 01:15:06;;;;;;;25.33;14.77;;;;;;;10.14;76.53;101999.22;10630223;27;20047;-62
2022/03/17 01:20:29;;;;;;;25.30;15.48;;;;;;;10.07;76.33;101979.56;10620367;27;20039;-63
2022/03/17 01:25:50;;;;;;;25.42;15.73;;;;;;;10.07;78.18;101976.94;10641391;27;20043;-62
2022/03/17 01:31:13;;;;;;;26.27;15.98;;;;;;;9.99;77.31;101963.44;10646490;27;20049;-63
2022/03/17 01:36:35;;;;;;;26.95;16.00;;;;;;;10.01;76.40;101959.00;10636063;27;20206;-63
2022/03/17 01:41:58;;;;;;;24.95;15.98;;;;;;;10.07;77.49;101956.09;10649558;27;20521;-63
2022/03/17 01:47:28;;;;;;;27.38;15.68;;;;;;;10.04;76.68;101956.28;10649500;27;20058;-63
2022/03/17 01:52:50;;;;;;;24.27;15.55;;;;;;;10.07;77.23;101945.69;10649011;27;20046;-63
2022/03/17 01:58:12;;;;;;;27.10;16.67;;;;;;;9.94;79.08;101934.09;10649409;27;20047;-63
2022/03/17 02:03:34;;;;;;;25.80;15.40;;;;;;;9.94;77.06;101919.34;10627323;27;20050;-63
2022/03/17 02:08:56;;;;;;;31.50;16.30;;;;;;;10.00;77.73;101923.44;10611479;27;20047;-62
2022/03/17 02:14:25;;;;;;;29.33;16.70;;;;;;;10.15;75.69;101914.94;10619995;27;20489;-63
2022/03/17 02:19:46;;;;;;;26.83;15.77;;;;;;;10.00;77.00;101907.81;10649226;27;20050;-63
2022/03/17 02:30:48;;;;;;;25.02;15.82;;;;;;;10.25;75.44;101892.75;10635371;27;20038;-63
2022/03/17 02:36:10;;;;;;;28.17;17.02;;;;;;;10.10;77.57;101877.81;10646670;27;20123;-63
2022/03/17 02:41:32;;;;;;;28.48;16.38;;;;;;;10.17;76.53;101863.63;10630970;27;20502;-63
2022/03/17 02:46:54;;;;;;;24.10;15.65;;;;;;;10.06;77.02;101865.84;10637306;27;20042;-63
2022/03/17 02:52:15;;;;;;;27.80;15.48;;;;;;;10.03;77.99;101860.81;10638624;27;20047;-63
2022/03/17 02:57:39;;;;;;;22.58;15.10;;;;;;;10.20;75.76;101847.81;10631344;27;20054;-63
2022/03/17 03:03:01;;;;;;;27.48;17.02;;;;;;;10.16;75.55;101841.09;10604397;27;20044;-63
2022/03/17 03:08:24;;;;;;;23.95;16.35;;;;;;;10.27;76.18;101844.03;10635089;27;20038;-62
2022/03/17 03:13:45;;;;;;;27.40;16.45;;;;;;;10.22;76.24;101848.59;10638190;27;20041;-62
2022/03/17 03:19:07;;;;;;;26.40;16.85;;;;;;;10.32;75.73;101842.88;10628967;27;20058;-63
2022/03/17 03:24:29;;;;;;;23.73;16.73;;;;;;;10.32;74.99;101847.28;10646017;27;20057;-63
2022/03/17 03:29:50;;;;;;;27.10;17.65;;;;;;;10.25;76.72;101853.66;10636038;27;20043;-63
2022/03/17 03:40:53;;;;;;;28.65;17.23;;;;;;;10.31;75.21;101861.22;10606459;27;20043;-63
2022/03/17 03:46:15;;;;;;;25.13;16.23;;;;;;;10.38;76.14;101865.19;10608136;27;20058;-63
2022/03/17 03:51:37;;;;;;;23.55;16.13;;;;;;;10.32;76.85;101875.94;10622490;27;20474;-63
2022/03/17 03:56:58;;;;;;;29.33;17.48;;;;;;;10.36;74.47;101864.44;10611606;27;20066;-63
2022/03/17 04:02:20;;;;;;;26.27;16.70;;;;;;;10.24;76.45;101860.66;10623866;27;20073;-63
2022/03/17 04:07:42;;;;;;;27.08;17.73;;;;;;;10.31;76.11;101864.66;10611998;27;20165;-63
2022/03/17 04:13:03;;;;;;;26.73;17.42;;;;;;;10.39;74.23;101859.94;10643478;27;20406;-63
2022/03/17 04:18:25;;;;;;;26.63;17.75;;;;;;;10.44;74.83;101865.75;10604069;27;20050;-63
2022/03/17 04:23:47;;;;;;;28.58;17.13;;;;;;;10.27;76.64;101870.09;10642683;27;20061;-63
2022/03/17 04:29:12;;;;;;;27.63;17.17;;;;;;;10.46;74.72;101860.50;10643078;27;20674;-63
2022/03/17 04:34:33;;;;;;;27.65;17.83;;;;;;;10.35;75.22;101857.53;10643946;27;20054;-63
2022/03/17 04:39:55;;;;;;;23.17;16.27;;;;;;;10.46;75.40;101869.13;10631137;27;20046;-63
2022/03/17 04:45:17;;;;;;;26.48;17.50;;;;;;;10.38;74.71;101883.44;10643386;27;20051;-63
2022/03/17 04:50:39;;;;;;;27.15;17.17;;;;;;;10.47;74.05;101872.59;10617523;27;20612;-63
2022/03/17 04:56:00;;;;;;;27.55;17.88;;;;;;;10.38;75.80;101878.22;10604640;27;20043;-63
2022/03/17 05:01:23;;;;;;;28.25;17.88;;;;;;;10.51;74.67;101876.72;10643144;27;20051;-63
2022/03/17 05:06:45;;;;;;;25.33;17.45;;;;;;;10.39;75.90;101874.72;10664924;27;20051;-63
2022/03/17 05:12:08;;;;;;;30.73;18.30;;;;;;;10.47;74.56;101872.59;10651362;27;20612;-63
2022/03/17 05:17:30;;;;;;;24.70;17.55;;;;;;;10.59;74.00;101873.72;10636432;27;20065;-63
2022/03/17 05:22:52;;;;;;;25.80;17.52;;;;;;;10.56;74.06;101884.28;10650441;27;20121;-63
2022/03/17 05:28:14;;;;;;;28.88;17.90;;;;;;;10.49;74.50;101879.44;10650556;27;20039;-63
2022/03/17 05:33:36;;;;;;;28.27;17.73;;;;;;;10.57;74.70;101885.09;10650810;27;20056;-63
2022/03/17 05:38:58;;;;;;;30.73;18.70;;;;;;;10.35;76.64;101883.59;10650216;27;20082;-63
2022/03/17 05:44:19;;;;;;;32.45;19.92;;;;;;;10.67;74.75;101897.63;10649499;27;20130;-63
2022/03/17 05:49:41;;;;;;;29.23;18.83;;;;;;;10.54;75.76;101896.53;10632440;27;20136;-63
2022/03/17 05:55:03;;;;;;;28.85;19.27;;;;;;;10.44;77.72;101888.38;10627077;27;20061;-63
2022/03/17 06:00:27;;;;;;;33.83;20.05;;;;;;;10.54;79.94;101909.56;10649842;27;20050;-63
2022/03/17 06:05:49;;;;;;;30.40;19.67;;;;;;;10.33;80.27;101911.50;10649333;27;20490;-63
2022/03/17 06:11:11;;;;;;;31.00;20.27;;;;;;;10.36;81.81;101921.75;10648098;27;20049;-64
2022/03/17 06:16:33;;;;;;;29.98;20.00;;;;;;;10.37;80.08;101928.66;10662709;27;20620;-64
2022/03/17 06:21:55;;;;;;;32.08;20.90;;;;;;;10.41;81.19;101938.88;10647350;27;20126;-63
2022/03/17 06:27:16;;;;;;;35.53;20.77;;;;;;;10.20;84.50;101946.81;10596406;27;20470;-63
2022/03/17 06:32:39;;;;;;;30.15;19.23;;;;;;;10.24;85.48;101953.59;10648601;27;20050;-64
2022/03/17 06:38:03;;;;;;;33.80;21.27;;;;;;;10.14;86.74;101978.38;10647130;27;20054;-65
2022/03/17 06:43:25;;;;;;;33.50;22.73;;;;;;;9.98;90.10;101985.16;10647397;27;20055;-64
2022/03/17 06:48:46;;;;;;;32.28;21.48;;;;;;;9.92;89.91;101988.88;10637128;27;20138;-64
2022/03/17 06:54:08;;;;;;;35.65;21.52;;;;;;;9.81;91.81;102003.25;10605688;27;20143;-65
2022/03/17 06:59:30;;;;;;;32.78;22.05;;;;;;;9.85;92.17;102008.25;10643686;27;20061;-64
2022/03/17 07:04:52;;;;;;;31.73;22.38;;;;;;;9.66;94.81;102028.19;10646750;27;20145;-65
2022/03/17 07:10:15;;;;;;;34.28;23.35;;;;;;;9.93;93.71;102039.19;10646810;27;20042;-64
2022/03/17 07:15:37;;;;;;;37.85;24.90;;;;;;;9.74;95.69;102040.91;10645913;27;20047;-64
2022/03/17 07:20:59;;;;;;;41.58;24.42;;;;;;;9.58;99.03;102042.44;10630706;27;20049;-64
2022/03/17 07:26:21;;;;;;;41.00;25.77;;;;;;;9.69;98.89;102048.03;10644742;27;20051;-64
2022/03/17 07:31:43;;;;;;;37.30;25.40;;;;;;;9.66;100.00;102063.78;10644187;27;20039;-64
2022/03/17 07:37:05;;;;;;;41.78;25.67;;;;;;;9.69;100.00;102079.28;10645552;27;20066;-64
2022/03/17 07:42:27;;;;;;;42.75;27.23;;;;;;;9.62;100.00;102089.09;10644874;27;20061;-64
2022/03/17 07:47:50;;;;;;;45.53;26.75;;;;;;;9.75;100.00;102099.88;10638679;27;20062;-64
2022/03/17 07:53:12;;;;;;;46.28;28.27;;;;;;;9.63;100.00;102121.16;10601595;27;20049;-65
2022/03/17 07:58:34;;;;;;;46.17;27.30;;;;;;;9.62;100.00;102140.31;10611215;27;20050;-64
2022/03/17 08:03:56;;;;;;;35.92;23.63;;;;;;;9.76;100.00;102156.22;10644299;27;20058;-64
2022/03/17 08:09:17;;;;;;;25.40;16.83;;;;;;;9.61;100.00;102169.84;10643323;27;20139;-65
2022/03/17 08:14:39;;;;;;;24.60;12.65;;;;;;;9.60;100.00;102178.59;10643322;27;20047;-64
2022/03/17 08:20:03;;;;;;;16.45;10.65;;;;;;;9.58;100.00;102190.81;10643968;27;20051;-64
2022/03/17 08:25:25;;;;;;;14.95;9.73;;;;;;;9.56;100.00;102208.25;10642400;27;20046;-64
2022/03/17 08:30:47;;;;;;;18.10;10.25;;;;;;;9.56;100.00;102229.06;10643738;27;20050;-64
2022/03/17 08:36:09;;;;;;;15.30;9.20;;;;;;;9.37;100.00;102245.44;10654732;27;20055;-64
2022/03/17 08:41:31;;;;;;;15.98;9.05;;;;;;;9.43;100.00;102246.06;10639604;27;20081;-63
2022/03/17 08:52:33;;;;;;;9.55;6.63;;;;;;;9.43;97.92;102276.41;10639586;27;20047;-63
2022/03/17 08:57:55;;;;;;;14.20;6.78;;;;;;;9.43;96.91;102287.69;10642223;27;20055;-63
2022/03/17 09:03:19;;;;;;;16.40;6.22;;;;;;;9.47;97.11;102294.47;10642799;27;20050;-63
2022/03/17 09:08:42;;;;;;;14.88;5.13;;;;;;;9.26;95.62;102318.69;10656992;27;20043;-64
2022/03/17 09:14:04;;;;;;;15.63;4.65;;;;;;;9.13;95.96;102327.81;10641755;27;20061;-63
2022/03/17 09:19:26;;;;;;;12.27;4.60;;;;;;;9.16;95.30;102345.94;10642665;27;20054;-63
2022/03/17 09:24:48;;;;;;;9.25;3.78;;;;;;;9.38;92.86;102365.06;10641051;27;20050;-63
2022/03/17 09:30:10;;;;;;;12.85;2.80;;;;;;;9.47;92.67;102364.75;10641318;27;20422;-64
2022/03/17 09:35:34;;;;;;;7.47;2.50;;;;;;;9.37;91.79;102378.16;10642399;27;20641;-63
2022/03/17 09:40:58;;;;;;;8.75;2.10;;;;;;;9.51;90.69;102387.16;10638031;27;20047;-65
2022/03/17 09:46:23;;;;;;;6.70;1.80;;;;;;;9.52;89.63;102394.06;10647379;27;20080;-63
2022/03/17 09:51:45;;;;;;;8.95;1.80;;;;;;;9.40;90.91;102409.25;10628363;27;20139;-63
2022/03/17 09:57:08;;;;;;;11.20;2.33;;;;;;;9.39;91.11;102429.25;10606889;27;20138;-63
2022/03/17 10:02:30;;;;;;;11.00;2.00;;;;;;;9.25;90.10;102436.66;10606838;27;20047;-63
2022/03/17 10:07:52;;;;;;;8.70;1.70;;;;;;;9.27;88.68;102455.69;10626049;27;20043;-64
2022/03/17 10:13:23;;;;;;;6.88;1.38;;;;;;;9.52;88.36;102461.75;10648277;27;20047;-63
2022/03/17 10:18:48;;;;;;;8.82;1.20;;;;;;;9.56;86.26;102474.59;10648193;27;20583;-63
2022/03/17 10:24:10;;;;;;;15.18;2.10;;;;;;;9.37;88.71;102488.28;10647632;27;20053;-63
2022/03/17 10:29:32;;;;;;;8.80;1.50;;;;;;;9.45;87.61;102516.66;10648750;27;20046;-63
2022/03/17 10:34:58;;;;;;;9.13;1.42;;;;;;;9.27;90.58;102517.25;10646943;27;20081;-63
2022/03/17 10:40:30;;;;;;;15.32;1.85;;;;;;;9.20;90.82;102537.44;10607227;27;20066;-62
2022/03/17 10:46:16;;;;;;;14.93;1.48;;;;;;;9.11;89.21;102553.34;10647961;27;20482;-63
2022/03/17 10:51:44;;;;;;;19.42;2.08;;;;;;;9.34;87.83;102563.84;10633165;27;20061;-63
2022/03/17 10:57:09;;;;;;;12.10;2.10;;;;;;;9.21;89.66;102579.91;10646950;27;20050;-63
2022/03/17 11:02:33;;;;;;;18.87;2.50;;;;;;;9.25;85.95;102592.78;10647112;27;20042;-63
2022/03/17 11:07:58;;;;;;;13.82;1.77;;;;;;;9.39;86.53;102611.41;10645368;27;20038;-63
2022/03/17 11:13:20;;;;;;;15.90;1.80;;;;;;;9.49;82.72;102632.81;10645740;27;20043;-63
2022/03/17 11:18:44;;;;;;;12.15;1.98;;;;;;;9.49;82.90;102638.03;10645754;27;20446;-63
2022/03/17 11:24:06;;;;;;;9.48;2.08;;;;;;;9.44;83.71;102656.38;10645624;27;20049;-63
2022/03/17 11:29:37;;;;;;;15.52;1.90;;;;;;;9.31;83.75;102673.28;10632154;27;20039;-63
2022/03/17 11:35:17;;;;;;;17.13;1.83;;;;;;;9.32;83.62;102681.91;10645689;27;20727;-64
2022/03/17 11:41:01;;;;;;;13.60;1.83;;;;;;;9.44;83.20;102679.81;10645217;27;20049;-62
2022/03/17 11:46:45;;;;;;;14.45;2.05;;;;;;;9.52;80.21;102677.81;10643967;27;20457;-63
2022/03/17 11:52:09;;;;;;;17.50;2.03;;;;;;;9.71;80.36;102689.38;10607143;27;20100;-63
2022/03/17 11:57:30;;;;;;;10.23;1.83;;;;;;;9.82;78.58;102695.94;10642767;27;20525;-61
2022/03/17 12:03:13;;;;;;;16.63;2.40;;;;;;;9.74;79.07;102717.94;10643698;27;20398;-63
2022/03/17 12:08:51;;;;;;;15.07;2.10;;;;;;;9.65;78.31;102712.97;10644186;27;20617;-63
2022/03/17 12:14:24;;;;;;;15.82;1.95;;;;;;;9.70;79.00;102721.53;10642555;27;20064;-63
2022/03/17 12:19:51;;;;;;;21.05;1.95;;;;;;;9.72;77.80;102730.97;10643170;27;20391;-64
2022/03/17 12:25:18;;;;;;;13.10;1.95;;;;;;;9.96;78.17;102734.56;10643542;27;20059;-63
2022/03/17 12:30:40;;;;;;;14.93;2.00;;;;;;;10.13;77.68;102738.38;10643024;27;20050;-63
2022/03/17 12:36:04;;;;;;;17.30;2.17;;;;;;;10.18;76.65;102740.84;10643640;27;20195;-63
2022/03/17 12:41:30;;;;;;;9.63;1.90;;;;;;;10.24;75.60;102740.63;10642669;27;20137;-63
2022/03/17 12:46:53;;;;;;;9.15;1.95;;;;;;;10.87;73.12;102748.00;10642282;27;20051;-64
2022/03/17 12:52:21;;;;;;;11.18;1.95;;;;;;;10.95;68.39;102764.22;10605262;28;20677;-64
2022/03/17 12:57:42;;;;;;;12.88;1.80;;;;;;;11.06;69.75;102761.25;10609567;27;20134;-63
2022/03/17 13:03:04;;;;;;;11.55;1.65;;;;;;;10.97;69.94;102779.84;10642879;27;20047;-63
2022/03/17 13:08:28;;;;;;;9.82;2.13;;;;;;;10.58;70.93;102789.00;10641928;27;20050;-63
2022/03/17 13:19:30;;;;;;;17.73;2.30;;;;;;;10.68;71.41;102783.44;10657288;27;20057;-63
2022/03/17 13:25:13;;;;;;;19.23;1.98;;;;;;;11.18;66.37;102803.44;10642765;27;20085;-64
2022/03/17 13:30:37;;;;;;;11.57;1.92;;;;;;;11.15;66.06;102808.75;10649271;27;20047;-64
2022/03/17 13:36:00;;;;;;;10.60;1.80;;;;;;;10.99;65.23;102817.16;10650337;27;20058;-64
2022/03/17 13:41:22;;;;;;;16.77;1.67;;;;;;;10.80;65.07;102836.97;10649941;27;20043;-64
2022/03/17 13:46:43;;;;;;;10.23;1.65;;;;;;;10.99;63.68;102827.59;10649481;27;20050;-63
2022/03/17 13:52:09;;;;;;;11.43;1.80;;;;;;;11.20;64.58;102840.78;10612312;27;20061;-64
2022/03/17 13:57:31;;;;;;;12.25;1.98;;;;;;;11.33;61.95;102839.44;10628087;27;20047;-64
2022/03/17 14:03:16;;;;;;;10.13;1.50;;;;;;;11.26;63.47;102858.81;10649824;27;20042;-63
2022/03/17 14:08:49;;;;;;;7.60;1.55;;;;;;;11.06;62.78;102861.25;10648248;27;20050;-64
2022/03/17 14:14:11;;;;;;;11.43;1.83;;;;;;;11.51;62.78;102864.88;10648164;27;20068;-66
2022/03/17 14:19:33;;;;;;;15.80;1.75;;;;;;;11.78;61.78;102879.59;10648974;27;20494;-66
2022/03/17 14:24:55;;;;;;;9.50;1.67;;;;;;;11.69;60.56;102875.56;10648141;27;20066;-66
2022/03/17 14:30:16;;;;;;;16.90;2.05;;;;;;;11.91;61.74;102886.06;10636450;27;20039;-67
2022/03/17 14:35:39;;;;;;;13.52;2.05;;;;;;;12.09;60.94;102890.59;10625936;27;20069;-63
2022/03/17 14:41:00;;;;;;;8.82;2.05;;;;;;;11.99;59.35;102894.47;10620622;27;20053;-64
2022/03/17 14:46:27;;;;;;;12.80;2.33;;;;;;;12.25;59.92;102902.16;10637426;27;20062;-63
2022/03/17 14:51:49;;;;;;;15.32;2.20;;;;;;;12.01;61.27;102924.03;10615426;27;20051;-62
2022/03/17 14:57:24;;;;;;;15.20;1.88;;;;;;;12.29;60.83;102929.91;10646237;27;20074;-64
2022/03/17 15:02:45;;;;;;;16.60;2.92;;;;;;;12.32;59.17;102929.81;10645945;27;20053;-64
2022/03/17 15:08:08;;;;;;;11.90;2.17;;;;;;;11.95;62.27;102932.06;10639708;27;20045;-62
2022/03/17 15:13:29;;;;;;;9.00;1.48;;;;;;;12.26;54.31;102948.31;10620415;27;20039;-63
2022/03/17 15:18:51;;;;;;;8.98;1.73;;;;;;;12.63;53.14;102968.66;10632044;27;20061;-64
2022/03/17 15:24:13;;;;;;;7.40;1.40;;;;;;;12.73;56.20;102971.78;10630068;27;20065;-64
2022/03/17 15:35:16;;;;;;;6.88;1.77;;;;;;;13.06;54.68;102979.16;10660184;27;20049;-64
2022/03/17 15:40:39;;;;;;;8.27;1.60;;;;;;;13.19;52.33;102984.72;10636144;27;20041;-63
2022/03/17 15:46:01;;;;;;;7.07;1.42;;;;;;;13.43;52.80;102995.06;10637392;27;20647;-64
2022/03/17 15:51:23;;;;;;;7.63;1.40;;;;;;;12.69;54.00;103010.28;10603395;27;20736;-64
2022/03/17 15:56:44;;;;;;;8.27;1.30;;;;;;;13.58;52.06;103015.38;10601650;27;20057;-62
2022/03/17 16:02:07;;;;;;;10.50;1.30;;;;;;;12.50;54.83;103030.22;10622738;27;20065;-62
2022/03/17 16:07:30;;;;;;;10.38;1.50;;;;;;;13.12;52.92;103033.88;10617531;27;20077;-62
2022/03/17 16:18:32;;;;;;;7.95;1.52;;;;;;;13.01;54.99;103043.09;10651728;27;20043;-63
2022/03/17 16:23:55;;;;;;;16.17;1.85;;;;;;;12.50;56.04;103061.63;10626091;27;20038;-62
2022/03/17 16:29:20;;;;;;;11.57;1.45;;;;;;;12.32;56.20;103060.56;10626238;27;20046;-63
2022/03/17 16:34:41;;;;;;;8.20;1.67;;;;;;;11.76;56.61;103072.16;10638069;27;20058;-63
2022/03/17 16:40:03;;;;;;;8.48;1.73;;;;;;;11.94;57.00;103080.22;10638265;27;20062;-63
2022/03/17 16:45:30;;;;;;;10.18;2.08;;;;;;;11.48;58.52;103084.38;10659563;27;20130;-62
2022/03/17 16:50:57;;;;;;;10.25;1.70;;;;;;;11.14;58.87;103094.19;10596602;28;20051;-64
2022/03/17 16:56:19;;;;;;;10.65;1.50;;;;;;;11.06;60.80;103106.59;10598065;27;20086;-63
2022/03/17 17:01:40;;;;;;;10.27;1.60;;;;;;;10.85;58.13;103114.19;10644348;27;20054;-63
2022/03/17 17:07:04;;;;;;;10.95;1.38;;;;;;;10.57;60.03;103119.38;10645017;27;20126;-63
2022/03/17 17:12:26;;;;;;;7.30;1.27;;;;;;;10.73;56.56;103133.69;10657389;27;20043;-63
2022/03/17 17:17:49;;;;;;;7.03;1.25;;;;;;;10.36;57.67;103141.69;10631687;27;20072;-63
2022/03/17 17:34:31;;;;;;;9.48;1.65;;;;;;;10.32;59.66;103169.59;10624957;27;20399;-65
2022/03/17 17:39:54;;;;;;;8.40;1.50;;;;;;;10.29;64.04;103184.50;10589083;27;20548;-64
2022/03/17 17:45:16;;;;;;;9.68;1.60;;;;;;;10.12;64.27;103191.88;10596619;27;20055;-64
2022/03/17 17:50:37;;;;;;;8.98;1.85;;;;;;;9.90;67.32;103203.66;10614350;27;20035;-63
2022/03/17 17:56:00;;;;;;;13.02;2.10;;;;;;;9.74;66.28;103216.19;10639203;27;20097;-64
2022/03/17 18:01:22;;;;;;;15.13;3.08;;;;;;;9.84;63.70;103240.28;10632980;27;20074;-63
2022/03/17 18:06:44;;;;;;;8.48;1.95;;;;;;;9.47;67.00;103247.19;10642306;27;20057;-64
2022/03/17 18:12:07;;;;;;;15.18;3.25;;;;;;;9.46;68.52;103261.09;10619504;27;20053;-64
2022/03/17 18:17:29;;;;;;;16.98;2.47;;;;;;;9.28;70.20;103264.09;10614494;27;20087;-64
2022/03/17 18:22:51;;;;;;;9.70;2.15;;;;;;;9.13;71.26;103268.75;10606019;27;20491;-63
2022/03/17 18:28:13;;;;;;;9.65;1.98;;;;;;;9.04;73.06;103282.78;10598243;27;20043;-64
2022/03/17 18:33:37;;;;;;;8.90;2.35;;;;;;;8.91;74.85;103288.25;10627926;27;20043;-64
2022/03/17 18:38:58;;;;;;;9.38;3.38;;;;;;;8.50;72.80;103303.75;10615679;27;20073;-64
2022/03/17 18:44:20;;;;;;;10.32;2.90;;;;;;;8.50;72.53;103313.25;10592451;27;20054;-64
2022/03/17 18:49:42;;;;;;;13.90;2.65;;;;;;;8.35;76.29;103316.97;10608048;27;20051;-63
2022/03/17 18:55:06;;;;;;;7.63;2.50;;;;;;;8.31;75.89;103330.00;10623444;27;20043;-64
2022/03/17 19:00:28;;;;;;;13.82;2.38;;;;;;;8.26;74.89;103337.88;10625266;27;20394;-64
2022/03/17 19:05:50;;;;;;;10.93;2.70;;;;;;;8.08;75.57;103347.66;10642505;27;20149;-64
2022/03/17 19:11:12;;;;;;;14.13;3.17;;;;;;;7.76;77.58;103355.91;10614897;27;20035;-64
2022/03/17 19:16:34;;;;;;;13.25;3.45;;;;;;;7.85;78.25;103354.91;10597643;27;20177;-65
2022/03/17 19:21:55;;;;;;;18.75;3.05;;;;;;;7.82;77.41;103370.53;10623295;27;20046;-66
2022/03/17 19:27:17;;;;;;;13.38;2.83;;;;;;;7.65;79.14;103388.03;10628855;27;20169;-64
2022/03/17 19:32:39;;;;;;;11.98;3.08;;;;;;;7.34;79.41;103391.84;10626984;27;20522;-63
2022/03/17 19:38:02;;;;;;;14.15;3.22;;;;;;;7.35;79.56;103411.72;10617687;27;20050;-63
2022/03/17 19:43:24;;;;;;;11.68;3.42;;;;;;;7.48;78.42;103422.84;10610605;27;20051;-63
2022/03/17 19:48:50;;;;;;;14.73;3.30;;;;;;;7.46;80.36;103425.44;10619444;27;20051;-63
2022/03/17 19:54:12;;;;;;;13.77;3.13;;;;;;;7.32;81.02;103440.28;10622659;27;20043;-64
2022/03/17 19:59:34;;;;;;;11.38;4.07;;;;;;;7.28;80.53;103443.78;10618307;27;20091;-63
2022/03/17 20:04:56;;;;;;;12.27;4.05;;;;;;;7.21;80.46;103459.41;10632263;27;20047;-63
2022/03/17 20:10:19;;;;;;;16.60;4.20;;;;;;;6.92;82.25;103462.25;10633018;27;20130;-62
2022/03/17 20:15:41;;;;;;;16.10;4.97;;;;;;;7.03;81.78;103473.41;10590230;27;20499;-63
2022/03/17 20:21:03;;;;;;;16.85;5.43;;;;;;;6.96;79.37;103476.94;10616201;27;20131;-63
2022/03/17 20:26:25;;;;;;;15.30;5.20;;;;;;;6.81;80.74;103487.41;10602612;27;20061;-62
2022/03/17 20:31:47;;;;;;;12.60;4.80;;;;;;;6.81;81.76;103490.00;10610339;27;20035;-63
2022/03/17 20:37:11;;;;;;;11.27;4.53;;;;;;;6.73;83.54;103496.94;10601032;27;20144;-63
2022/03/17 20:42:32;;;;;;;20.65;5.43;;;;;;;6.69;82.52;103503.00;10609202;28;20100;-63
2022/03/17 20:47:54;;;;;;;13.95;5.70;;;;;;;6.60;82.35;103497.06;10608033;27;20490;-63
2022/03/17 20:53:16;;;;;;;18.33;6.25;;;;;;;6.55;82.73;103505.72;10603867;27;20042;-62
2022/03/17 20:58:38;;;;;;;14.93;5.65;;;;;;;6.46;83.30;103513.53;10617966;27;20050;-62
2022/03/17 21:04:00;;;;;;;15.35;5.57;;;;;;;6.20;83.55;103524.00;10625595;27;20285;-62
2022/03/17 21:09:22;;;;;;;13.20;6.20;;;;;;;6.27;84.33;103524.81;10627905;27;20050;-62
2022/03/17 21:14:44;;;;;;;15.57;6.22;;;;;;;6.11;84.54;103530.97;10621923;27;20047;-63
2022/03/17 21:20:08;;;;;;;14.13;5.80;;;;;;;6.14;84.62;103529.22;10608498;27;20038;-63
2022/03/17 21:25:30;;;;;;;16.67;6.43;;;;;;;6.06;85.09;103527.50;10605484;27;20057;-62
2022/03/17 21:30:54;;;;;;;14.10;5.68;;;;;;;6.06;84.37;103543.88;10602881;27;20037;-62
2022/03/17 21:36:16;;;;;;;13.30;5.97;;;;;;;5.98;85.46;103555.13;10621931;27;20054;-63
2022/03/17 21:41:38;;;;;;;18.27;6.50;;;;;;;5.96;86.76;103551.72;10618623;27;20483;-63
2022/03/17 21:47:03;;;;;;;13.82;6.03;;;;;;;5.86;86.45;103563.81;10627251;27;20055;-62
2022/03/17 21:52:25;;;;;;;15.27;5.37;;;;;;;5.88;86.54;103575.00;10621413;27;20030;-62
2022/03/17 21:58:06;;;;;;;12.15;4.75;;;;;;;5.85;84.74;103581.91;10605593;27;20479;-63
2022/03/17 22:03:28;;;;;;;14.38;4.38;;;;;;;5.78;84.38;103585.38;10617202;27;20062;-63
2022/03/17 22:08:50;;;;;;;12.18;4.60;;;;;;;5.70;84.91;103585.34;10620387;27;20074;-63
2022/03/17 22:14:12;;;;;;;17.00;4.80;;;;;;;5.51;86.67;103593.13;10615252;27;20379;-62
2022/03/17 22:19:34;;;;;;;17.42;5.28;;;;;;;5.53;86.10;103591.38;10634179;27;20042;-62
2022/03/17 22:24:55;;;;;;;12.82;5.15;;;;;;;5.38;86.67;103598.25;10629659;27;20043;-63
2022/03/17 22:30:17;;;;;;;10.48;5.32;;;;;;;5.43;86.93;103600.00;10627475;27;20054;-62
2022/03/17 22:35:39;;;;;;;15.85;6.72;;;;;;;5.35;87.05;103598.25;10619127;27;20047;-62
2022/03/17 22:46:41;;;;;;;16.98;6.05;;;;;;;5.38;85.73;103591.38;10644748;27;20062;-63
2022/03/17 22:52:03;;;;;;;15.48;5.80;;;;;;;5.42;87.17;103602.59;10631752;27;20409;-63
2022/03/17 22:57:25;;;;;;;19.27;5.97;;;;;;;5.41;87.22;103601.72;10636103;27;20039;-63
2022/03/17 23:02:47;;;;;;;14.73;5.20;;;;;;;5.28;87.86;103599.97;10648157;27;20383;-63
2022/03/17 23:08:09;;;;;;;13.73;4.88;;;;;;;5.28;87.15;103594.81;10637807;27;20083;-62
2022/03/17 23:13:31;;;;;;;17.08;4.25;;;;;;;5.29;87.07;103601.69;10646701;27;20046;-62
2022/03/17 23:18:53;;;;;;;13.25;4.40;;;;;;;5.24;87.04;103607.72;10620920;27;20058;-63
2022/03/17 23:24:18;;;;;;;17.23;4.38;;;;;;;5.30;87.21;103603.44;10616172;27;20047;-63
2022/03/17 23:29:39;;;;;;;19.10;3.97;;;;;;;5.32;87.01;103606.88;10631871;27;20051;-63
2022/03/17 23:35:04;;;;;;;16.40;4.32;;;;;;;5.28;88.38;103612.06;10628704;27;20053;-63
2022/03/17 23:40:27;;;;;;;9.70;4.13;;;;;;;5.19;88.25;103609.44;10606185;27;20055;-63
2022/03/17 23:45:49;;;;;;;13.77;4.28;;;;;;;5.04;89.15;103615.44;10596533;27;20137;-62
2022/03/17 23:51:11;;;;;;;13.27;3.70;;;;;;;5.09;88.06;103618.03;10613576;27;20047;-63
2022/03/17 23:56:32;;;;;;;15.55;3.85;;;;;;;4.86;88.76;103630.91;10606504;27;20058;-63
